Callville Bay, Nevada
Current Conditions -  °F | °C
As of 7:56 AM on Sunday 21 Dec 2014 (Local Time) from KHND Reporting Station
Clear Clear  
Wind Chill: 40°   Ceiling: Unl
Heat Index: 45°   Visibility: 10mi
Dew Point: 37°   Wind: 10mph
Humidity: 74%   Direction: 220°SW
Pressure: 30.16"   Gusts: NA
Location:  35.8437°N, 115.134°W
Report Text: KHND 211556Z 22009KT 10SM CLR 07/03 A3016 RMK AO2 SLP220 T00720028
Loading
Personal Weather Stations






























Interactive Weather Map New forecast layout! Learn more

10-Day Weather Forecast

Advertisements
Track Severe Weather on mobile